Shepherd's Bush, United Kingdom
Current Conditions -  °F | °C
As of 1:50 PM on Thursday 23 Oct 2014 (Local Time) from EGWU Reporting Station
Broken Clouds Broken Clouds  
Wind Chill: 61°   Ceiling: 3000
Heat Index: 61°   Visibility: 6mi
Dew Point: 52°   Wind: 10mph
Humidity: 72%   Direction: 230°SW
Pressure: 30.09"   Gusts: NA
Location:  51.51°N, 0.24°W
Report Text: EGWU 231250Z 23009KT 9999 FEW020 BKN030 16/11 Q1019 BECMG BKN020
Loading
Personal Weather Stations






























Interactive Weather Map
Tropical Storm Tracking
New forecast layout! Learn more

10-Day Weather Forecast

Advertisements
Track Severe Weather on mobile